Wetterdaten: Mittwoch, 06.01.2010
Datum Zeit Temp. A. Feuchte A. Luftdruck Regen Wind Richtung Richtung Sonnenschein UV Solar Windben
06.01.2010 00:00 -5,1 C 84 % 1003,2 hPa 0,0 mm 0,0 km/h (0 Bft) N 0 0 min 0 UV-I 0 W/m 0,0 km/h (0 Bft)
06.01.2010 00:10 -5,3 C 84 % 1003,0 hPa 0,0 mm 0,0 km/h (0 Bft) O-SO 112 0 min 0 UV-I 0 W/m 1,6 km/h (1 Bft)
06.01.2010 00:20 -5,4 C 84 % 1003,1 hPa 0,0 mm 0,0 km/h (0 Bft) O-SO 112 0 min 0 UV-I 0 W/m 1,6 km/h (1 Bft)
06.01.2010 00:30 -5,4 C 84 % 1002,9 hPa 0,0 mm 0,0 km/h (0 Bft) O-SO 112 0 min 0 UV-I 0 W/m 3,2 km/h (1 Bft)
06.01.2010 00:40 -5,5 C 84 % 1002,8 hPa 0,0 mm 0,0 km/h (0 Bft) O-SO 112 0 min 0 UV-I 0 W/m 3,2 km/h (1 Bft)
06.01.2010 00:50 -5,6 C 85 % 1002,6 hPa 0,0 mm 0,0 km/h (0 Bft) O-SO 112 0 min 0 UV-I 0 W/m 4,8 km/h (1 Bft)
06.01.2010 01:00 -5,6 C 85 % 1002,4 hPa 0,0 mm 0,0 km/h (0 Bft) O-SO 112 0 min 0 UV-I 0 W/m 1,6 km/h (1 Bft)
06.01.2010 01:10 -5,5 C 85 % 1002,4 hPa 0,0 mm 1,6 km/h (1 Bft) O-SO 112 0 min 0 UV-I 0 W/m 4,8 km/h (1 Bft)
06.01.2010 01:20 -5,4 C 85 % 1002,4 hPa 0,0 mm 1,6 km/h (1 Bft) O-SO 112 0 min 0 UV-I 0 W/m 4,8 km/h (1 Bft)
06.01.2010 01:30 -5,4 C 86 % 1002,4 hPa 0,0 mm 1,6 km/h (1 Bft) O-SO 112 0 min 0 UV-I 0 W/m 4,8 km/h (1 Bft)
06.01.2010 01:40 -5,3 C 86 % 1002,3 hPa 0,0 mm 1,6 km/h (1 Bft) O-SO 112 0 min 0 UV-I 0 W/m 4,8 km/h (1 Bft)
06.01.2010 01:50 -5,3 C 86 % 1002,3 hPa 0,0 mm 1,6 km/h (1 Bft) O-SO 112 0 min 0 UV-I 0 W/m 4,8 km/h (1 Bft)
06.01.2010 02:00 -5,2 C 86 % 1002,4 hPa 0,0 mm 1,6 km/h (1 Bft) O-SO 112 0 min 0 UV-I 0 W/m 4,8 km/h (1 Bft)
06.01.2010 02:10 -5,1 C 86 % 1002,4 hPa 0,0 mm 0,0 km/h (0 Bft) O-SO 112 0 min 0 UV-I 0 W/m 3,2 km/h (1 Bft)
06.01.2010 02:20 -5,1 C 87 % 1002,5 hPa 0,0 mm 1,6 km/h (1 Bft) O-SO 112 0 min 0 UV-I 0 W/m 4,8 km/h (1 Bft)
06.01.2010 02:30 -5,0 C 87 % 1002,6 hPa 0,0 mm 0,0 km/h (0 Bft) O-SO 112 0 min 0 UV-I 0 W/m 4,8 km/h (1 Bft)
06.01.2010 02:40 -5,0 C 87 % 1002,6 hPa 0,0 mm 0,0 km/h (0 Bft) SO 135 0 min 0 UV-I 0 W/m 3,2 km/h (1 Bft)
06.01.2010 02:50 -4,9 C 86 % 1002,7 hPa 0,0 mm 0,0 km/h (0 Bft) SO 135 0 min 0 UV-I 0 W/m 3,2 km/h (1 Bft)
06.01.2010 03:00 -4,9 C 86 % 1002,7 hPa 0,0 mm 0,0 km/h (0 Bft) SO 135 0 min 0 UV-I 0 W/m 1,6 km/h (1 Bft)
06.01.2010 03:10 -4,9 C 86 % 1002,6 hPa 0,0 mm 0,0 km/h (0 Bft) SO 135 0 min 0 UV-I 0 W/m 1,6 km/h (1 Bft)
06.01.2010 03:20 -4,9 C 86 % 1002,6 hPa 0,0 mm 0,0 km/h (0 Bft) SO 135 0 min 0 UV-I 0 W/m 1,6 km/h (1 Bft)
06.01.2010 03:30 -4,9 C 86 % 1002,6 hPa 0,0 mm 0,0 km/h (0 Bft) SO 135 0 min 0 UV-I 0 W/m 1,6 km/h (1 Bft)
06.01.2010 03:40 -4,9 C 86 % 1002,6 hPa 0,0 mm 0,0 km/h (0 Bft) SO 135 0 min 0 UV-I 0 W/m 3,2 km/h (1 Bft)
06.01.2010 03:50 -4,8 C 86 % 1002,5 hPa 0,0 mm 0,0 km/h (0 Bft) SO 135 0 min 0 UV-I 0 W/m 3,2 km/h (1 Bft)
06.01.2010 04:00 -4,8 C 86 % 1002,4 hPa 0,0 mm 0,0 km/h (0 Bft) SO 135 0 min 0 UV-I 0 W/m 1,6 km/h (1 Bft)
06.01.2010 04:10 -4,8 C 86 % 1002,5 hPa 0,0 mm 0,0 km/h (0 Bft) SO 135 0 min 0 UV-I 0 W/m 3,2 km/h (1 Bft)
06.01.2010 04:20 -4,8 C 86 % 1002,4 hPa 0,0 mm 0,0 km/h (0 Bft) SO 135 0 min 0 UV-I 0 W/m 3,2 km/h (1 Bft)
06.01.2010 04:30 -4,7 C 87 % 1002,4 hPa 0,0 mm 0,0 km/h (0 Bft) SO 135 0 min 0 UV-I 0 W/m 1,6 km/h (1 Bft)
06.01.2010 04:40 -4,7 C 87 % 1002,4 hPa 0,0 mm 0,0 km/h (0 Bft) N 0 0 min 0 UV-I 0 W/m 0,0 km/h (0 Bft)
06.01.2010 04:50 -4,6 C 87 % 1002,3 hPa 0,0 mm 0,0 km/h (0 Bft) SO 135 0 min 0 UV-I 0 W/m 1,6 km/h (1 Bft)
06.01.2010 05:00 -4,6 C 87 % 1002,3 hPa 0,0 mm 0,0 km/h (0 Bft) SO 135 0 min 0 UV-I 0 W/m 3,2 km/h (1 Bft)
06.01.2010 05:10 -4,6 C 87 % 1002,3 hPa 0,0 mm 0,0 km/h (0 Bft) SO 135 0 min 0 UV-I 0 W/m 1,6 km/h (1 Bft)
06.01.2010 05:20 -4,5 C 87 % 1002,2 hPa 0,0 mm 0,0 km/h (0 Bft) N 0 0 min 0 UV-I 0 W/m 0,0 km/h (0 Bft)
06.01.2010 05:30 -4,4 C 87 % 1002,2 hPa 0,0 mm 0,0 km/h (0 Bft) SO 135 0 min 0 UV-I 0 W/m 1,6 km/h (1 Bft)
06.01.2010 05:40 -4,4 C 87 % 1002,3 hPa 0,0 mm 0,0 km/h (0 Bft) N 0 0 min 0 UV-I 0 W/m 0,0 km/h (0 Bft)
06.01.2010 05:50 -4,4 C 87 % 1002,3 hPa 0,0 mm 0,0 km/h (0 Bft) N 0 0 min 0 UV-I 0 W/m 0,0 km/h (0 Bft)
06.01.2010 06:00 -4,4 C 87 % 1002,4 hPa 0,0 mm 0,0 km/h (0 Bft) N 0 0 min 0 UV-I 0 W/m 0,0 km/h (0 Bft)
06.01.2010 06:10 -4,4 C 87 % 1002,4 hPa 0,0 mm 0,0 km/h (0 Bft) SO 135 0 min 0 UV-I 0 W/m 1,6 km/h (1 Bft)
06.01.2010 06:20 -4,3 C 87 % 1002,4 hPa 0,0 mm 0,0 km/h (0 Bft) SO 135 0 min 0 UV-I 0 W/m 1,6 km/h (1 Bft)
06.01.2010 06:30 -4,3 C 87 % 1002,5 hPa 0,0 mm 0,0 km/h (0 Bft) N 0 0 min 0 UV-I 0 W/m 0,0 km/h (0 Bft)
06.01.2010 06:40 -4,3 C 87 % 1002,5 hPa 0,0 mm 0,0 km/h (0 Bft) N 0 0 min 0 UV-I 0 W/m 0,0 km/h (0 Bft)
06.01.2010 06:50 -4,3 C 87 % 1002,5 hPa 0,0 mm 0,0 km/h (0 Bft) SO 135 0 min 0 UV-I 0 W/m 1,6 km/h (1 Bft)
06.01.2010 07:00 -4,2 C 87 % 1002,6 hPa 0,0 mm 0,0 km/h (0 Bft) SO 135 0 min 0 UV-I 0 W/m 3,2 km/h (1 Bft)
06.01.2010 07:10 -4,2 C 87 % 1002,6 hPa 0,0 mm 0,0 km/h (0 Bft) SO 135 0 min 0 UV-I 0 W/m 3,2 km/h (1 Bft)
06.01.2010 07:20 -4,2 C 87 % 1002,5 hPa 0,0 mm 0,0 km/h (0 Bft) SO 135 0 min 0 UV-I 0 W/m 1,6 km/h (1 Bft)
06.01.2010 07:30 -4,2 C 87 % 1002,6 hPa 0,0 mm 0,0 km/h (0 Bft) SO 135 0 min 0 UV-I 0 W/m 3,2 km/h (1 Bft)
06.01.2010 07:40 -4,1 C 87 % 1002,6 hPa 0,0 mm 0,0 km/h (0 Bft) SO 135 0 min 0 UV-I 0 W/m 1,6 km/h (1 Bft)
06.01.2010 07:50 -4,1 C 87 % 1002,7 hPa 0,0 mm 0,0 km/h (0 Bft) SO 135 0 min 0 UV-I 0 W/m 3,2 km/h (1 Bft)
06.01.2010 08:00 -4,1 C 87 % 1002,7 hPa 0,0 mm 0,4 km/h (0 Bft) SO 126 0 min 0 UV-I 0 W/m 3,2 km/h (1 Bft)
06.01.2010 08:10 -4,1 C 87 % 1002,7 hPa 0,0 mm 0,0 km/h (0 Bft) SO 135 0 min 0 UV-I 0 W/m 1,6 km/h (1 Bft)
06.01.2010 08:20 -4,0 C 87 % 1002,7 hPa 0,0 mm 0,0 km/h (0 Bft) SO 135 0 min 0 UV-I 0 W/m 3,2 km/h (1 Bft)
06.01.2010 08:30 -4,0 C 87 % 1002,8 hPa 0,0 mm 0,0 km/h (0 Bft) N 0 0 min 0 UV-I 0 W/m 0,0 km/h (0 Bft)
06.01.2010 08:40 -4,0 C 87 % 1002,8 hPa 0,0 mm 0,0 km/h (0 Bft) SO 135 0 min 0 UV-I 0 W/m 1,6 km/h (1 Bft)
06.01.2010 08:50 -4,0 C 87 % 1002,8 hPa 0,0 mm 0,0 km/h (0 Bft) SO 135 0 min 0 UV-I 5 W/m 1,6 km/h (1 Bft)
06.01.2010 09:00 -3,9 C 87 % 1002,8 hPa 0,0 mm 0,0 km/h (0 Bft) SO 135 0 min 0 UV-I 5 W/m 3,2 km/h (1 Bft)
06.01.2010 09:10 -3,9 C 88 % 1002,9 hPa 0,0 mm 0,0 km/h (0 Bft) SO 135 0 min 0 UV-I 9 W/m 3,2 km/h (1 Bft)
06.01.2010 09:20 -3,9 C 88 % 1002,9 hPa 0,0 mm 0,0 km/h (0 Bft) S-SO 157 0 min 0 UV-I 12 W/m 1,6 km/h (1 Bft)
06.01.2010 09:30 -3,9 C 88 % 1002,9 hPa 0,0 mm 0,0 km/h (0 Bft) S-SO 157 0 min 0 UV-I 18 W/m 1,6 km/h (1 Bft)
06.01.2010 09:40 -3,9 C 88 % 1003,0 hPa 0,0 mm 0,0 km/h (0 Bft) S-SO 157 0 min 0 UV-I 25 W/m 1,6 km/h (1 Bft)
06.01.2010 09:50 -3,8 C 88 % 1003,1 hPa 0,0 mm 0,0 km/h (0 Bft) S-SO 157 0 min 0 UV-I 28 W/m 1,6 km/h (1 Bft)
06.01.2010 10:00 -3,7 C 88 % 1003,0 hPa 0,0 mm 0,0 km/h (0 Bft) S-SO 157 0 min 0 UV-I 30 W/m 4,8 km/h (1 Bft)
06.01.2010 10:10 -3,7 C 88 % 1003,1 hPa 0,0 mm 0,0 km/h (0 Bft) S 180 0 min 0 UV-I 33 W/m 4,8 km/h (1 Bft)
06.01.2010 10:20 -3,7 C 88 % 1003,1 hPa 0,0 mm 0,0 km/h (0 Bft) S 180 0 min 0 UV-I 32 W/m 3,2 km/h (1 Bft)
06.01.2010 10:30 -3,6 C 88 % 1003,1 hPa 0,0 mm 0,0 km/h (0 Bft) S 180 0 min 0 UV-I 33 W/m 3,2 km/h (1 Bft)
06.01.2010 10:40 -3,6 C 88 % 1003,2 hPa 0,0 mm 0,0 km/h (0 Bft) S 180 0 min 0 UV-I 39 W/m 3,2 km/h (1 Bft)
06.01.2010 10:50 -3,5 C 88 % 1003,3 hPa 0,0 mm 0,0 km/h (0 Bft) S 180 0 min 0 UV-I 47 W/m 1,6 km/h (1 Bft)
06.01.2010 11:00 -3,5 C 88 % 1003,2 hPa 0,0 mm 0,0 km/h (0 Bft) S 180 0 min 0 UV-I 60 W/m 1,6 km/h (1 Bft)
06.01.2010 11:10 -3,4 C 88 % 1003,3 hPa 0,0 mm 0,0 km/h (0 Bft) N 0 0 min 0 UV-I 76 W/m 0,0 km/h (0 Bft)
06.01.2010 11:20 -3,3 C 88 % 1003,1 hPa 0,0 mm 0,0 km/h (0 Bft) S 180 0 min 0 UV-I 91 W/m 3,2 km/h (1 Bft)
06.01.2010 11:30 -3,2 C 88 % 1003,1 hPa 0,0 mm 0,0 km/h (0 Bft) S 180 0 min 0 UV-I 90 W/m 1,6 km/h (1 Bft)
06.01.2010 11:40 -3,1 C 88 % 1003,1 hPa 0,0 mm 0,0 km/h (0 Bft) S 180 0 min 0 UV-I 98 W/m 1,6 km/h (1 Bft)
06.01.2010 11:50 -3,0 C 88 % 1003,0 hPa 0,0 mm 0,0 km/h (0 Bft) S 180 0 min 0 UV-I 116 W/m 1,6 km/h (1 Bft)
06.01.2010 12:00 -2,8 C 88 % 1003,0 hPa 0,0 mm 0,0 km/h (0 Bft) S 180 0 min 0 UV-I 120 W/m 3,2 km/h (1 Bft)
06.01.2010 12:10 -2,6 C 88 % 1003,0 hPa 0,0 mm 0,0 km/h (0 Bft) S 180 0 min 0 UV-I 86 W/m 3,2 km/h (1 Bft)
06.01.2010 12:20 -2,5 C 88 % 1002,9 hPa 0,0 mm 0,0 km/h (0 Bft) S 180 0 min 0 UV-I 86 W/m 1,6 km/h (1 Bft)
06.01.2010 12:30 -2,4 C 88 % 1002,9 hPa 0,0 mm 0,0 km/h (0 Bft) N 0 0 min 0 UV-I 81 W/m 0,0 km/h (0 Bft)
06.01.2010 12:40 -2,4 C 88 % 1002,8 hPa 0,0 mm 0,0 km/h (0 Bft) N 0 0 min 0 UV-I 86 W/m 0,0 km/h (0 Bft)
06.01.2010 12:50 -2,3 C 87 % 1002,9 hPa 0,0 mm 0,0 km/h (0 Bft) S 180 0 min 0 UV-I 76 W/m 1,6 km/h (1 Bft)
06.01.2010 13:00 -2,1 C 87 % 1002,8 hPa 0,0 mm 0,0 km/h (0 Bft) N 0 0 min 0 UV-I 67 W/m 0,0 km/h (0 Bft)
06.01.2010 13:10 -2,0 C 87 % 1002,7 hPa 0,0 mm 0,0 km/h (0 Bft) S 180 0 min 0 UV-I 67 W/m 1,6 km/h (1 Bft)
06.01.2010 13:20 -1,9 C 86 % 1002,7 hPa 0,0 mm 0,0 km/h (0 Bft) N 0 0 min 0 UV-I 65 W/m 0,0 km/h (0 Bft)
06.01.2010 13:30 -1,8 C 86 % 1002,7 hPa 0,0 mm 0,0 km/h (0 Bft) S 180 0 min 0 UV-I 65 W/m 1,6 km/h (1 Bft)
06.01.2010 13:40 -1,8 C 85 % 1002,7 hPa 0,0 mm 0,0 km/h (0 Bft) N 0 0 min 0 UV-I 60 W/m 0,0 km/h (0 Bft)
06.01.2010 13:50 -1,8 C 84 % 1002,6 hPa 0,0 mm 0,0 km/h (0 Bft) S 180 0 min 0 UV-I 53 W/m 1,6 km/h (1 Bft)
06.01.2010 14:00 -1,8 C 84 % 1002,7 hPa 0,0 mm 0,0 km/h (0 Bft) S 180 0 min 0 UV-I 53 W/m 1,6 km/h (1 Bft)
06.01.2010 14:10 -1,8 C 83 % 1002,7 hPa 0,0 mm 0,0 km/h (0 Bft) N 0 0 min 0 UV-I 51 W/m 0,0 km/h (0 Bft)
06.01.2010 14:20 -1,8 C 83 % 1002,8 hPa 0,0 mm 0,0 km/h (0 Bft) S 180 0 min 0 UV-I 37 W/m 3,2 km/h (1 Bft)
06.01.2010 14:30 -1,9 C 83 % 1002,7 hPa 0,0 mm 0,0 km/h (0 Bft) S 180 0 min 0 UV-I 40 W/m 3,2 km/h (1 Bft)
06.01.2010 14:40 -1,9 C 82 % 1002,7 hPa 0,0 mm 0,0 km/h (0 Bft) S 180 0 min 0 UV-I 40 W/m 1,6 km/h (1 Bft)
06.01.2010 14:50 -2,0 C 82 % 1002,8 hPa 0,0 mm 0,0 km/h (0 Bft) S 180 0 min 0 UV-I 40 W/m 3,2 km/h (1 Bft)
06.01.2010 15:00 -2,1 C 83 % 1002,8 hPa 0,0 mm 0,0 km/h (0 Bft) N 0 0 min 0 UV-I 44 W/m 0,0 km/h (0 Bft)
06.01.2010 15:10 -2,1 C 83 % 1002,8 hPa 0,0 mm 0,0 km/h (0 Bft) N 0 0 min 0 UV-I 44 W/m 0,0 km/h (0 Bft)
06.01.2010 15:20 -2,1 C 83 % 1002,8 hPa 0,0 mm 0,0 km/h (0 Bft) S 180 0 min 0 UV-I 39 W/m 1,6 km/h (1 Bft)
06.01.2010 15:30 -2,1 C 83 % 1002,9 hPa 0,0 mm 0,0 km/h (0 Bft) N 0 0 min 0 UV-I 32 W/m 0,0 km/h (0 Bft)
06.01.2010 15:40 -2,1 C 83 % 1003,0 hPa 0,0 mm 0,0 km/h (0 Bft) N 0 0 min 0 UV-I 30 W/m 0,0 km/h (0 Bft)
06.01.2010 15:50 -2,1 C 83 % 1003,2 hPa 0,0 mm 0,0 km/h (0 Bft) N 0 0 min 0 UV-I 23 W/m 0,0 km/h (0 Bft)
06.01.2010 16:00 -2,1 C 82 % 1003,3 hPa 0,0 mm 0,0 km/h (0 Bft) S 179 0 min 0 UV-I 11 W/m 1,6 km/h (1 Bft)
06.01.2010 16:10 -2,1 C 82 % 1003,3 hPa 0,0 mm 0,0 km/h (0 Bft) S 180 0 min 0 UV-I 11 W/m 3,2 km/h (1 Bft)
06.01.2010 16:20 -2,2 C 82 % 1003,4 hPa 0,0 mm 0,0 km/h (0 Bft) S 180 0 min 0 UV-I 9 W/m 1,6 km/h (1 Bft)
06.01.2010 16:30 -2,2 C 82 % 1003,4 hPa 0,0 mm 0,0 km/h (0 Bft) S 180 0 min 0 UV-I 5 W/m 1,6 km/h (1 Bft)
06.01.2010 16:40 -2,3 C 82 % 1003,5 hPa 0,0 mm 0,0 km/h (0 Bft) N 0 0 min 0 UV-I 0 W/m 0,0 km/h (0 Bft)
06.01.2010 16:50 -2,3 C 82 % 1003,4 hPa 0,0 mm 0,0 km/h (0 Bft) N 0 0 min 0 UV-I 0 W/m 0,0 km/h (0 Bft)
06.01.2010 17:00 -2,4 C 83 % 1003,5 hPa 0,0 mm 0,0 km/h (0 Bft) N 0 0 min 0 UV-I 0 W/m 0,0 km/h (0 Bft)
06.01.2010 17:10 -2,4 C 83 % 1003,5 hPa 0,0 mm 0,0 km/h (0 Bft) N 0 0 min 0 UV-I 0 W/m 0,0 km/h (0 Bft)
06.01.2010 17:20 -2,5 C 83 % 1003,5 hPa 0,0 mm 0,0 km/h (0 Bft) N 0 0 min 0 UV-I 0 W/m 0,0 km/h (0 Bft)
06.01.2010 17:30 -2,6 C 82 % 1003,5 hPa 0,0 mm 0,0 km/h (0 Bft) N 0 0 min 0 UV-I 0 W/m 0,0 km/h (0 Bft)
06.01.2010 17:40 -2,6 C 83 % 1003,7 hPa 0,0 mm 0,0 km/h (0 Bft) S 179 0 min 0 UV-I 0 W/m 0,0 km/h (0 Bft)
06.01.2010 17:50 -2,7 C 83 % 1003,6 hPa 0,0 mm 0,0 km/h (0 Bft) S 179 0 min 0 UV-I 0 W/m 0,0 km/h (0 Bft)
06.01.2010 18:00 -2,7 C 83 % 1003,7 hPa 0,0 mm 0,0 km/h (0 Bft) S 179 0 min 0 UV-I 0 W/m 0,0 km/h (0 Bft)
06.01.2010 18:10 -2,7 C 83 % 1003,7 hPa 0,0 mm 0,0 km/h (0 Bft) S 179 0 min 0 UV-I 0 W/m 0,0 km/h (0 Bft)
06.01.2010 18:20 -2,7 C 84 % 1003,7 hPa 0,0 mm 0,0 km/h (0 Bft) S 179 0 min 0 UV-I 0 W/m 1,6 km/h (1 Bft)
06.01.2010 18:30 -2,7 C 84 % 1003,8 hPa 0,0 mm 0,0 km/h (0 Bft) S 179 0 min 0 UV-I 0 W/m 0,0 km/h (0 Bft)
06.01.2010 18:40 -2,7 C 84 % 1003,9 hPa 0,0 mm 0,0 km/h (0 Bft) S 179 0 min 0 UV-I 0 W/m 0,0 km/h (0 Bft)
06.01.2010 18:50 -2,8 C 84 % 1003,8 hPa 0,0 mm 0,0 km/h (0 Bft) S 179 0 min 0 UV-I 0 W/m 0,0 km/h (0 Bft)
06.01.2010 19:00 -2,8 C 84 % 1004,0 hPa 0,0 mm 0,0 km/h (0 Bft) S 179 0 min 0 UV-I 0 W/m 0,0 km/h (0 Bft)
06.01.2010 19:10 -2,8 C 84 % 1003,8 hPa 0,0 mm 0,0 km/h (0 Bft) S 179 0 min 0 UV-I 0 W/m 0,0 km/h (0 Bft)
06.01.2010 19:20 -2,8 C 85 % 1003,9 hPa 0,0 mm 0,0 km/h (0 Bft) S 179 0 min 0 UV-I 0 W/m 0,0 km/h (0 Bft)
06.01.2010 19:30 -2,8 C 85 % 1004,1 hPa 0,0 mm 0,1 km/h (0 Bft) S 179 0 min 0 UV-I 0 W/m 3,2 km/h (1 Bft)
06.01.2010 19:40 -2,8 C 85 % 1004,1 hPa 0,0 mm 0,0 km/h (0 Bft) S 179 0 min 0 UV-I 0 W/m 1,6 km/h (1 Bft)
06.01.2010 19:50 -2,7 C 85 % 1004,2 hPa 0,0 mm 0,2 km/h (0 Bft) S 179 0 min 0 UV-I 0 W/m 1,6 km/h (1 Bft)
06.01.2010 20:00 -2,7 C 85 % 1004,3 hPa 0,0 mm 0,0 km/h (0 Bft) S 179 0 min 0 UV-I 0 W/m 1,6 km/h (1 Bft)
06.01.2010 20:10 -2,7 C 85 % 1004,3 hPa 0,0 mm 0,0 km/h (0 Bft) S 179 0 min 0 UV-I 0 W/m 0,0 km/h (0 Bft)
06.01.2010 20:20 -2,7 C 85 % 1004,3 hPa 0,0 mm 0,0 km/h (0 Bft) S 179 0 min 0 UV-I 0 W/m 0,0 km/h (0 Bft)
06.01.2010 20:30 -2,7 C 85 % 1004,4 hPa 0,0 mm 0,0 km/h (0 Bft) S 179 0 min 0 UV-I 0 W/m 0,0 km/h (0 Bft)
06.01.2010 20:40 -2,7 C 85 % 1004,4 hPa 0,0 mm 0,0 km/h (0 Bft) S 179 0 min 0 UV-I 0 W/m 0,0 km/h (0 Bft)
06.01.2010 20:50 -2,7 C 85 % 1004,5 hPa 0,0 mm 0,0 km/h (0 Bft) S 179 0 min 0 UV-I 0 W/m 0,0 km/h (0 Bft)
06.01.2010 21:00 -2,7 C 85 % 1004,5 hPa 0,0 mm 0,0 km/h (0 Bft) S 179 0 min 0 UV-I 0 W/m 0,0 km/h (0 Bft)
06.01.2010 21:10 -2,7 C 85 % 1004,5 hPa 0,0 mm 0,0 km/h (0 Bft) S 179 0 min 0 UV-I 0 W/m 0,0 km/h (0 Bft)
06.01.2010 21:20 -2,7 C 86 % 1004,6 hPa 0,0 mm 0,1 km/h (0 Bft) S 179 0 min 0 UV-I 0 W/m 1,6 km/h (1 Bft)
06.01.2010 21:30 -2,7 C 86 % 1004,6 hPa 0,0 mm 0,0 km/h (0 Bft) S 179 0 min 0 UV-I 0 W/m 1,6 km/h (1 Bft)
06.01.2010 21:40 -2,7 C 86 % 1004,5 hPa 0,0 mm 0,1 km/h (0 Bft) S 179 0 min 0 UV-I 0 W/m 1,6 km/h (1 Bft)
06.01.2010 21:50 -2,7 C 86 % 1004,6 hPa 0,0 mm 0,0 km/h (0 Bft) S 179 0 min 0 UV-I 0 W/m 0,0 km/h (0 Bft)
06.01.2010 22:00 -2,7 C 86 % 1004,7 hPa 0,0 mm 0,0 km/h (0 Bft) S 179 0 min 0 UV-I 0 W/m 0,0 km/h (0 Bft)
06.01.2010 22:10 -2,8 C 86 % 1004,7 hPa 0,0 mm 0,1 km/h (0 Bft) S 179 0 min 0 UV-I 0 W/m 1,6 km/h (1 Bft)
06.01.2010 22:20 -2,8 C 86 % 1004,8 hPa 0,0 mm 0,0 km/h (0 Bft) S 179 0 min 0 UV-I 0 W/m 0,0 km/h (0 Bft)
06.01.2010 22:30 -2,8 C 86 % 1004,8 hPa 0,0 mm 0,0 km/h (0 Bft) S 179 0 min 0 UV-I 0 W/m 0,0 km/h (0 Bft)
06.01.2010 22:40 -2,8 C 86 % 1004,9 hPa 0,0 mm 0,0 km/h (0 Bft) S 179 0 min 0 UV-I 0 W/m 0,0 km/h (0 Bft)
06.01.2010 22:50 -2,8 C 86 % 1005,0 hPa 0,0 mm 0,1 km/h (0 Bft) S 179 0 min 0 UV-I 0 W/m 1,6 km/h (1 Bft)
06.01.2010 23:00 -2,8 C 86 % 1005,1 hPa 0,0 mm 0,4 km/h (0 Bft) S 179 0 min 0 UV-I 0 W/m 3,2 km/h (1 Bft)
06.01.2010 23:10 -2,8 C 86 % 1005,1 hPa 0,0 mm 0,2 km/h (0 Bft) S 179 0 min 0 UV-I 0 W/m 3,2 km/h (1 Bft)
06.01.2010 23:20 -2,8 C 86 % 1005,1 hPa 0,0 mm 0,1 km/h (0 Bft) S 179 0 min 0 UV-I 0 W/m 1,6 km/h (1 Bft)
06.01.2010 23:30 -2,8 C 86 % 1005,2 hPa 0,0 mm 0,1 km/h (0 Bft) S 179 0 min 0 UV-I 0 W/m 1,6 km/h (1 Bft)
06.01.2010 23:40 -2,7 C 86 % 1005,1 hPa 0,0 mm 0,0 km/h (0 Bft) S 179 0 min 0 UV-I 0 W/m 1,6 km/h (1 Bft)
06.01.2010 23:50 -2,7 C 86 % 1005,0 hPa 0,0 mm 0,0 km/h (0 Bft) S 180 0 min 0 UV-I 0 W/m 1,6 km/h (1 Bft)
_ Min-Zeit 00:40 14:40 05:20 - 00:00 - - - - - 00:00
Minimum _ -5,6 C 82 % 1002,2 hPa - 0,0 km/h (0 Bft) - - - - - 0,0 km/h (0 Bft)
_ Max-Zeit 13:30 09:10 23:30 00:00 01:10 - - 00:00 00:00 12:00 00:50
Maximum _ -1,8 C 88 % 1005,2 hPa 0,0 mm 1,6 km/h
O-SO (1 Bft)
- - 0 min 0 UV-I 120 W/m 4,8 km/h
O-SO (1 Bft)
Durchschnitt _ -3,5 C 86 % 1003,2 hPa #0,0 mm 0,1 km/h (0 Bft) O-SO - #0 min. 0 UV-I 48 W/m 1,6 km/h (1 Bft)